createdAt,value
2018-05-13T00:01:21.071Z,20.60
2018-05-13T00:03:49.038Z,20.60
2018-05-13T00:06:16.926Z,20.50
2018-05-13T00:08:44.920Z,20.20
2018-05-13T00:11:13.657Z,19.50
2018-05-13T00:13:41.579Z,19.40
2018-05-13T00:16:10.279Z,19.90
2018-05-13T00:18:38.251Z,19.80
2018-05-13T00:21:06.243Z,19.80
2018-05-13T00:23:34.245Z,19.80
2018-05-13T00:26:02.221Z,19.60
2018-05-13T00:28:30.131Z,19.20
2018-05-13T00:30:58.146Z,19.10
2018-05-13T00:33:26.078Z,19.50
2018-05-13T00:35:54.057Z,19.50
2018-05-13T00:38:22.055Z,19.50
2018-05-13T00:40:50.059Z,19.70
2018-05-13T00:43:18.828Z,18.80
2018-05-13T00:45:46.806Z,18.80
2018-05-13T00:48:14.738Z,18.80
2018-05-13T00:50:42.752Z,18.70
2018-05-13T00:53:11.467Z,19.00
2018-05-13T00:55:39.393Z,19.00
2018-05-13T00:58:07.299Z,19.00
2018-05-13T01:00:35.339Z,18.80
2018-05-13T01:03:04.059Z,18.60
2018-05-13T01:05:32.008Z,18.60
2018-05-13T01:08:00.739Z,19.10
2018-05-13T01:10:28.683Z,19.10
2018-05-13T01:12:56.603Z,19.10
2018-05-13T01:15:24.610Z,19.20
2018-05-13T01:17:53.337Z,19.00
2018-05-13T01:20:21.259Z,19.00
2018-05-13T01:22:50.033Z,19.00
2018-05-13T01:25:18.063Z,19.00
2018-05-13T01:27:46.073Z,19.10
2018-05-13T01:33:07.225Z,19.00
2018-05-13T01:35:35.995Z,19.00
2018-05-13T01:38:04.693Z,19.00
2018-05-13T01:40:33.445Z,18.90
2018-05-13T01:43:01.357Z,18.90
2018-05-13T01:45:29.291Z,18.70
2018-05-13T01:47:57.214Z,18.60
2018-05-13T01:50:25.179Z,18.40
2018-05-13T01:52:53.093Z,18.40
2018-05-13T01:55:21.105Z,18.60
2018-05-13T01:57:49.863Z,18.80
2018-05-13T02:00:17.786Z,18.70
2018-05-13T02:02:45.935Z,18.90
2018-05-13T02:05:13.874Z,19.10
2018-05-13T02:07:41.853Z,19.00
2018-05-13T02:10:10.617Z,18.80
2018-05-13T02:12:38.552Z,18.80
2018-05-13T02:15:06.532Z,19.00
2018-05-13T02:17:34.470Z,19.20
2018-05-13T02:20:02.390Z,19.30
2018-05-13T02:22:30.293Z,19.40
2018-05-13T02:24:58.975Z,19.40
2018-05-13T02:27:27.617Z,19.40
2018-05-13T02:29:55.611Z,19.30
2018-05-13T02:32:23.534Z,19.00
2018-05-13T02:34:51.425Z,18.90
2018-05-13T02:37:19.367Z,19.00
2018-05-13T02:39:47.380Z,19.10
2018-05-13T02:42:15.332Z,19.20
2018-05-13T02:44:44.050Z,19.30
2018-05-13T02:47:12.007Z,19.30
2018-05-13T02:49:39.957Z,19.20
2018-05-13T02:52:07.929Z,19.00
2018-05-13T02:54:36.633Z,19.10
2018-05-13T02:57:04.545Z,19.00
2018-05-13T02:59:32.437Z,19.20
2018-05-13T03:02:00.365Z,19.10
2018-05-13T03:04:29.050Z,18.90
2018-05-13T03:06:57.878Z,19.00
2018-05-13T03:09:25.796Z,19.00
2018-05-13T03:11:53.786Z,19.00
2018-05-13T03:14:22.539Z,18.80
2018-05-13T03:16:50.592Z,18.80
2018-05-13T03:19:18.600Z,18.80
2018-05-13T03:21:47.286Z,18.90
2018-05-13T03:24:16.037Z,18.80
2018-05-13T03:26:43.971Z,18.80
2018-05-13T03:29:11.862Z,18.80
2018-05-13T03:31:39.791Z,18.70
2018-05-13T03:34:08.454Z,18.80
2018-05-13T03:36:36.392Z,18.70
2018-05-13T03:39:04.484Z,18.70
2018-05-13T03:41:32.385Z,18.80
2018-05-13T03:44:01.101Z,18.80
2018-05-13T03:46:29.122Z,18.80
2018-05-13T03:48:57.061Z,18.80
2018-05-13T03:51:25.013Z,18.70
2018-05-13T03:53:52.951Z,18.70
2018-05-13T03:56:21.655Z,18.70
2018-05-13T03:58:49.610Z,18.70
2018-05-13T04:01:18.311Z,18.70
2018-05-13T04:03:46.206Z,18.70
2018-05-13T04:06:14.131Z,18.90
2018-05-13T04:09:04.625Z,18.80
2018-05-13T04:11:45.110Z,18.70
2018-05-13T04:14:24.915Z,18.70
2018-05-13T04:16:52.879Z,18.80
2018-05-13T04:19:20.838Z,18.80
2018-05-13T04:21:48.829Z,18.80
2018-05-13T04:24:16.781Z,18.80
2018-05-13T04:26:44.758Z,18.80
2018-05-13T04:29:12.678Z,18.80
2018-05-13T04:31:40.700Z,18.80
2018-05-13T04:34:08.642Z,18.90
2018-05-13T04:36:36.619Z,19.00
2018-05-13T04:39:04.666Z,19.00
2018-05-13T04:41:32.688Z,19.10
2018-05-13T04:44:00.619Z,19.10
2018-05-13T04:46:28.520Z,19.30
2018-05-13T04:48:56.462Z,19.30
2018-05-13T04:51:24.374Z,19.10
2018-05-13T04:53:53.034Z,19.10
2018-05-13T04:56:20.990Z,19.10
2018-05-13T04:58:48.921Z,19.10
2018-05-13T05:01:16.888Z,19.20
2018-05-13T05:03:44.810Z,19.30
2018-05-13T05:06:12.780Z,19.30
2018-05-13T05:08:40.758Z,19.70
2018-05-13T05:11:08.656Z,19.30
2018-05-13T05:13:37.340Z,19.20
2018-05-13T05:16:06.023Z,19.30
2018-05-13T05:18:34.728Z,19.30
2018-05-13T05:21:02.619Z,19.20
2018-05-13T05:23:30.596Z,19.30
2018-05-13T05:25:58.605Z,19.20
2018-05-13T05:28:26.528Z,19.20
2018-05-13T05:30:54.537Z,19.20
2018-05-13T05:33:22.477Z,19.30
2018-05-13T05:35:50.518Z,19.40
2018-05-13T05:38:19.210Z,19.60
2018-05-13T05:40:47.230Z,19.60
2018-05-13T05:43:15.211Z,19.60
2018-05-13T05:45:43.136Z,19.70
2018-05-13T05:48:11.035Z,19.70
2018-05-13T05:50:39.001Z,19.80
2018-05-13T05:53:06.943Z,19.70
2018-05-13T05:55:34.862Z,19.80
2018-05-13T05:58:03.584Z,19.80
2018-05-13T06:00:31.451Z,19.80
2018-05-13T06:02:59.333Z,19.80
2018-05-13T06:05:27.273Z,19.70
2018-05-13T06:07:55.972Z,20.10
2018-05-13T06:10:23.895Z,20.00
2018-05-13T06:12:51.820Z,20.10
2018-05-13T06:15:19.733Z,20.10
2018-05-13T06:17:47.735Z,20.00
2018-05-13T06:20:15.720Z,20.10
2018-05-13T06:22:43.692Z,20.30
2018-05-13T06:25:11.655Z,20.20
2018-05-13T06:27:39.549Z,20.30
2018-05-13T06:30:07.434Z,20.30
2018-05-13T06:32:35.354Z,20.40
2018-05-13T06:35:03.323Z,20.60
2018-05-13T06:37:31.340Z,20.60
2018-05-13T06:39:59.300Z,20.70
2018-05-13T06:42:27.226Z,20.80
2018-05-13T06:44:55.951Z,20.80
2018-05-13T06:47:23.889Z,20.80
2018-05-13T06:49:51.855Z,20.60
2018-05-13T06:52:19.846Z,21.00
2018-05-13T06:54:47.799Z,20.90
2018-05-13T06:57:15.781Z,20.90
2018-05-13T06:59:43.759Z,20.90
2018-05-13T07:02:11.702Z,20.90
2018-05-13T07:04:40.355Z,21.00
2018-05-13T07:07:08.296Z,21.00
2018-05-13T07:09:36.254Z,20.90
2018-05-13T07:12:04.205Z,20.90
2018-05-13T07:14:32.094Z,21.10
2018-05-13T07:17:00.056Z,21.10
2018-05-13T07:19:28.003Z,21.00
2018-05-13T07:21:55.983Z,21.30
2018-05-13T07:24:24.037Z,21.30
2018-05-13T07:26:52.784Z,21.40
2018-05-13T07:29:20.698Z,21.30
2018-05-13T07:31:48.620Z,21.30
2018-05-13T07:34:16.538Z,21.40
2018-05-13T07:36:44.553Z,21.60
2018-05-13T07:39:12.556Z,21.60
2018-05-13T07:41:41.324Z,21.50
2018-05-13T07:44:09.355Z,21.50
2018-05-13T07:46:37.312Z,21.90
2018-05-13T07:49:05.252Z,21.90
2018-05-13T07:51:33.276Z,21.90
2018-05-13T07:54:01.182Z,22.00
2018-05-13T07:56:29.194Z,22.00
2018-05-13T07:58:57.151Z,22.20
2018-05-13T08:01:25.805Z,22.30
2018-05-13T08:03:53.897Z,22.20
2018-05-13T08:06:22.617Z,22.30
2018-05-13T08:08:50.535Z,22.30
2018-05-13T08:11:18.471Z,22.20
2018-05-13T08:13:46.432Z,22.10
2018-05-13T08:16:15.363Z,22.20
2018-05-13T08:18:43.298Z,22.30
2018-05-13T08:21:11.281Z,22.40
2018-05-13T08:23:39.293Z,22.50
2018-05-13T08:26:07.973Z,22.60
2018-05-13T08:28:36.835Z,22.60
2018-05-13T08:31:04.722Z,22.60
2018-05-13T08:33:32.759Z,22.60
2018-05-13T08:36:00.684Z,22.70
2018-05-13T08:38:29.350Z,22.60
2018-05-13T08:40:58.088Z,22.50
2018-05-13T08:43:26.095Z,22.50
2018-05-13T08:45:54.028Z,22.50
2018-05-13T08:48:22.082Z,22.50
2018-05-13T08:50:50.021Z,22.60
2018-05-13T08:53:18.744Z,22.70
2018-05-13T08:55:46.623Z,22.70
2018-05-13T08:58:14.589Z,23.00
2018-05-13T09:00:42.537Z,23.00
2018-05-13T09:03:10.419Z,23.00
2018-05-13T09:05:38.347Z,23.10
2018-05-13T09:08:06.308Z,23.30
2018-05-13T09:10:34.257Z,23.40
2018-05-13T09:13:02.178Z,23.50
2018-05-13T09:15:30.921Z,24.20
2018-05-13T09:17:58.890Z,24.20
2018-05-13T09:20:26.786Z,24.20
2018-05-13T09:22:55.446Z,24.00
2018-05-13T09:25:23.516Z,24.00
2018-05-13T09:27:51.499Z,23.90
2018-05-13T09:30:19.482Z,24.00
2018-05-13T09:32:48.200Z,23.90
2018-05-13T09:35:16.182Z,23.90
2018-05-13T09:37:44.114Z,23.90
2018-05-13T09:40:12.861Z,24.00
2018-05-13T09:42:40.952Z,24.00
2018-05-13T09:45:08.869Z,23.60
2018-05-13T09:47:36.891Z,23.50
2018-05-13T09:50:04.892Z,23.80
2018-05-13T09:52:33.563Z,23.60
2018-05-13T09:55:02.381Z,23.30
2018-05-13T09:57:30.249Z,23.30
2018-05-13T09:59:58.120Z,23.10
2018-05-13T10:02:26.095Z,23.00
2018-05-13T10:04:54.050Z,23.00
2018-05-13T10:07:21.984Z,23.20
2018-05-13T10:09:49.951Z,23.20
2018-05-13T10:12:17.843Z,23.20
2018-05-13T10:14:46.700Z,22.90
2018-05-13T10:17:14.711Z,22.80
2018-05-13T10:19:42.630Z,22.70
2018-05-13T10:22:11.288Z,22.60
2018-05-13T10:24:39.261Z,22.60
2018-05-13T10:27:07.323Z,22.50
2018-05-13T10:29:35.194Z,22.40
2018-05-13T10:32:03.246Z,22.50
2018-05-13T10:34:33.169Z,21.30
2018-05-13T10:37:01.151Z,21.30
2018-05-13T10:39:29.649Z,20.10
2018-05-13T10:41:57.535Z,19.20
2018-05-13T10:44:26.296Z,18.80
2018-05-13T10:46:54.277Z,18.40
2018-05-13T10:49:23.488Z,18.30
2018-05-13T10:52:00.959Z,17.80
2018-05-13T10:54:32.355Z,17.40
2018-05-13T10:57:00.347Z,17.10
2018-05-13T10:59:28.459Z,16.80
2018-05-13T11:01:59.107Z,17.10
2018-05-13T11:04:27.956Z,17.00
2018-05-13T11:06:56.096Z,17.00
2018-05-13T11:09:24.152Z,16.40
2018-05-13T11:11:52.270Z,16.20
2018-05-13T11:14:20.419Z,16.30
2018-05-13T11:16:48.457Z,16.30
2018-05-13T11:19:17.311Z,16.50
2018-05-13T11:21:45.423Z,16.50
2018-05-13T11:24:14.895Z,17.20
2018-05-13T11:26:42.999Z,17.20
2018-05-13T11:29:11.010Z,17.50
2018-05-13T11:31:39.119Z,17.50
2018-05-13T11:34:07.175Z,17.50
2018-05-13T11:36:35.259Z,17.30
2018-05-13T11:39:03.325Z,17.40
2018-05-13T11:41:31.361Z,17.50
2018-05-13T11:43:59.353Z,18.00
2018-05-13T11:46:27.468Z,17.90
2018-05-13T11:48:56.247Z,18.10
2018-05-13T11:51:25.062Z,18.20
2018-05-13T11:53:53.133Z,18.10
2018-05-13T11:56:21.258Z,19.20
2018-05-13T11:58:49.319Z,20.20
2018-05-13T12:01:17.406Z,20.90
2018-05-13T12:03:45.492Z,21.30
2018-05-13T12:06:13.552Z,21.90
2018-05-13T12:08:41.657Z,22.40
2018-05-13T12:11:10.468Z,22.70
2018-05-13T12:13:38.612Z,22.70
2018-05-13T12:16:07.469Z,22.80
2018-05-13T12:18:35.496Z,22.80
2018-05-13T12:21:03.675Z,22.90
2018-05-13T12:23:32.437Z,23.60
2018-05-13T12:26:01.347Z,23.80
2018-05-13T12:28:29.379Z,23.70
2018-05-13T12:30:57.427Z,23.80
2018-05-13T12:33:25.472Z,23.80
2018-05-13T12:35:53.612Z,24.10
2018-05-13T12:38:22.525Z,24.30
2018-05-13T12:40:50.615Z,24.30
2018-05-13T12:43:18.812Z,24.90
2018-05-13T12:45:46.874Z,24.50
2018-05-13T12:48:14.866Z,24.50
2018-05-13T12:50:42.913Z,24.80
2018-05-13T12:53:10.983Z,24.80
2018-05-13T12:55:39.155Z,25.20
2018-05-13T12:58:09.727Z,25.20
2018-05-13T13:00:37.865Z,25.10
2018-05-13T13:03:05.947Z,25.70
2018-05-13T13:05:34.032Z,26.10
2018-05-13T13:08:02.190Z,26.30
2018-05-13T13:10:30.225Z,26.80
2018-05-13T13:12:58.266Z,27.10
2018-05-13T13:15:26.360Z,26.80
2018-05-13T13:17:55.164Z,26.70
2018-05-13T13:20:23.221Z,26.80
2018-05-13T13:22:52.303Z,26.20
2018-05-13T13:25:21.110Z,26.40
2018-05-13T13:27:49.923Z,26.90
2018-05-13T13:30:18.042Z,26.80
2018-05-13T13:32:46.099Z,26.50
2018-05-13T13:35:14.149Z,26.50
2018-05-13T13:37:42.375Z,27.20
2018-05-13T13:40:11.193Z,26.50
2018-05-13T13:42:39.222Z,26.40
2018-05-13T13:45:07.391Z,26.00
2018-05-13T13:47:35.476Z,26.90
2018-05-13T13:50:03.622Z,27.50
2018-05-13T13:52:31.764Z,26.90
2018-05-13T13:54:59.847Z,26.70
2018-05-13T13:57:28.794Z,27.00
2018-05-13T13:59:57.674Z,27.10
2018-05-13T14:02:25.708Z,27.10
2018-05-13T14:04:53.749Z,27.10
2018-05-13T14:07:21.816Z,27.10
2018-05-13T14:09:49.883Z,27.20
2018-05-13T14:12:18.704Z,27.50
2018-05-13T14:14:46.762Z,27.50
2018-05-13T14:17:14.771Z,27.70
2018-05-13T14:19:42.903Z,27.90
2018-05-13T14:22:11.045Z,26.40
2018-05-13T14:24:39.218Z,26.40
2018-05-13T14:27:07.204Z,27.10
2018-05-13T14:29:36.066Z,28.30
2018-05-13T14:32:04.151Z,28.20
2018-05-13T14:34:32.174Z,28.10
2018-05-13T14:37:00.316Z,28.40
2018-05-13T14:39:29.191Z,27.60
2018-05-13T14:41:57.985Z,28.50
2018-05-13T14:44:27.076Z,27.60
2018-05-13T14:46:56.095Z,26.70
2018-05-13T14:49:24.106Z,26.70
2018-05-13T14:51:52.185Z,26.30
2018-05-13T14:54:20.164Z,26.40
2018-05-13T14:56:48.192Z,26.50
2018-05-13T14:59:16.356Z,26.50
2018-05-13T15:01:44.423Z,26.00
2018-05-13T15:04:12.449Z,25.70
2018-05-13T15:06:40.524Z,25.30
2018-05-13T15:09:08.619Z,25.10
2018-05-13T15:11:37.537Z,26.00
2018-05-13T15:14:05.636Z,24.50
2018-05-13T15:16:33.813Z,24.30
2018-05-13T15:19:02.196Z,24.30
2018-05-13T15:21:30.322Z,24.20
2018-05-13T15:23:58.365Z,24.00
2018-05-13T15:26:26.401Z,23.90
2018-05-13T15:28:54.504Z,24.00
2018-05-13T15:31:22.840Z,24.00
2018-05-13T15:33:50.866Z,23.90
2018-05-13T15:36:19.866Z,23.80
2018-05-13T15:38:47.923Z,23.80
2018-05-13T15:41:15.923Z,23.90
2018-05-13T15:43:44.725Z,23.80
2018-05-13T15:46:12.746Z,23.80
2018-05-13T15:48:40.708Z,23.70
2018-05-13T15:51:08.840Z,23.70
2018-05-13T15:53:36.889Z,23.50
2018-05-13T15:56:05.704Z,23.30
2018-05-13T15:58:34.105Z,23.30
2018-05-13T16:01:02.243Z,22.80
2018-05-13T16:03:31.047Z,22.70
2018-05-13T16:05:59.076Z,22.70
2018-05-13T16:08:27.071Z,22.10
2018-05-13T16:10:55.855Z,21.50
2018-05-13T16:13:24.881Z,21.30
2018-05-13T16:15:53.707Z,21.20
2018-05-13T16:18:21.834Z,21.10
2018-05-13T16:20:49.863Z,20.90
2018-05-13T16:23:17.898Z,20.80
2018-05-13T16:25:45.966Z,20.90
2018-05-13T16:28:14.017Z,20.90
2018-05-13T16:30:42.035Z,21.00
2018-05-13T16:33:10.067Z,20.90
2018-05-13T16:35:38.196Z,20.80
2018-05-13T16:38:06.260Z,21.30
2018-05-13T16:40:34.412Z,21.80
2018-05-13T16:43:02.490Z,21.60
2018-05-13T16:45:30.529Z,21.60
2018-05-13T16:47:58.654Z,22.40
2018-05-13T16:50:26.700Z,23.00
2018-05-13T16:52:54.767Z,23.90
2018-05-13T16:55:22.748Z,24.60
2018-05-13T16:57:50.920Z,25.00
2018-05-13T17:00:18.893Z,24.60
2018-05-13T17:02:46.886Z,24.00
2018-05-13T17:05:14.951Z,24.30
2018-05-13T17:07:42.998Z,24.60
2018-05-13T17:10:11.087Z,23.50
2018-05-13T17:12:39.192Z,22.70
2018-05-13T17:15:07.946Z,22.00
2018-05-13T17:17:36.044Z,21.90
2018-05-13T17:20:04.937Z,21.70
2018-05-13T17:22:33.881Z,21.60
2018-05-13T17:25:02.817Z,21.40
2018-05-13T17:27:31.630Z,21.40
2018-05-13T17:29:59.609Z,21.30
2018-05-13T17:32:27.719Z,21.40
2018-05-13T17:34:55.865Z,21.50
2018-05-13T17:37:24.031Z,21.30
2018-05-13T17:39:52.128Z,21.20
2018-05-13T17:42:20.233Z,21.50
2018-05-13T17:44:48.284Z,21.40
2018-05-13T17:47:16.277Z,21.40
2018-05-13T17:49:44.487Z,21.40
2018-05-13T17:52:13.641Z,21.30
2018-05-13T17:54:41.679Z,21.30
2018-05-13T17:57:09.855Z,21.10
2018-05-13T17:59:37.926Z,21.00
2018-05-13T18:02:06.040Z,21.00
2018-05-13T18:04:34.122Z,21.10
2018-05-13T18:07:08.123Z,20.90
2018-05-13T18:09:42.713Z,20.90
2018-05-13T18:12:10.806Z,20.80
2018-05-13T18:14:38.851Z,20.70
2018-05-13T18:17:06.929Z,20.80
2018-05-13T18:19:35.045Z,20.70
2018-05-13T18:22:03.839Z,20.60
2018-05-13T18:24:32.721Z,20.60
2018-05-13T18:27:00.717Z,20.60
2018-05-13T18:29:29.542Z,20.60
2018-05-13T18:31:57.577Z,20.60
2018-05-13T18:34:26.385Z,20.50
2018-05-13T18:36:54.494Z,20.50
2018-05-13T18:39:22.623Z,20.60
2018-05-13T18:41:50.972Z,20.60
2018-05-13T18:44:20.524Z,20.60
2018-05-13T18:46:48.568Z,20.60
2018-05-13T18:49:16.707Z,20.50
2018-05-13T18:51:44.719Z,20.30
2018-05-13T18:54:12.805Z,20.30
2018-05-13T18:56:40.912Z,20.00
2018-05-13T18:59:08.968Z,20.10
2018-05-13T19:01:37.069Z,20.00
2018-05-13T19:04:05.161Z,20.00
2018-05-13T19:06:34.037Z,20.00
2018-05-13T19:09:02.128Z,20.00
2018-05-13T19:11:31.064Z,19.90
2018-05-13T19:13:59.144Z,19.90
2018-05-13T19:16:27.233Z,19.90
2018-05-13T19:18:55.354Z,19.90
2018-05-13T19:21:23.414Z,19.80
2018-05-13T19:23:52.278Z,19.80
2018-05-13T19:26:20.392Z,19.80
2018-05-13T19:28:48.415Z,19.90
2018-05-13T19:31:16.517Z,19.80
2018-05-13T19:33:45.376Z,19.80
2018-05-13T19:36:13.434Z,18.30
2018-05-13T19:38:41.534Z,19.80
2018-05-13T19:41:09.605Z,19.80
2018-05-13T19:43:37.630Z,19.70
2018-05-13T19:46:05.861Z,19.50
2018-05-13T19:48:34.648Z,19.70
2018-05-13T19:51:03.451Z,19.80
2018-05-13T19:53:31.555Z,19.70
2018-05-13T19:55:59.652Z,19.80
2018-05-13T19:58:27.832Z,19.20
2018-05-13T20:00:56.001Z,18.80
2018-05-13T20:03:24.241Z,18.50
2018-05-13T20:05:52.913Z,18.50
2018-05-13T20:08:21.724Z,18.50
2018-05-13T20:10:50.518Z,18.60
2018-05-13T20:13:18.576Z,18.60
2018-05-13T20:15:46.655Z,18.50
2018-05-13T20:18:15.457Z,18.20
2018-05-13T20:20:43.484Z,18.20
2018-05-13T20:23:24.331Z,17.40
2018-05-13T20:25:53.211Z,17.30
2018-05-13T20:28:21.319Z,17.30
2018-05-13T20:30:50.129Z,17.10
2018-05-13T20:33:18.241Z,17.10
2018-05-13T20:35:46.245Z,17.50
2018-05-13T20:38:15.073Z,18.00
2018-05-13T20:40:43.109Z,17.90
2018-05-13T20:43:11.925Z,18.00
2018-05-13T20:45:39.975Z,18.00
2018-05-13T20:48:08.762Z,18.00
2018-05-13T20:50:37.571Z,18.00
2018-05-13T20:53:05.683Z,18.00
2018-05-13T20:55:33.763Z,17.90
2018-05-13T20:58:01.902Z,17.90
2018-05-13T21:00:29.944Z,17.90
2018-05-13T21:02:58.863Z,17.60
2018-05-13T21:05:27.021Z,17.60
2018-05-13T21:07:55.890Z,17.60
2018-05-13T21:10:24.712Z,17.90
2018-05-13T21:12:52.868Z,17.80
2018-05-13T21:15:21.688Z,17.50
2018-05-13T21:17:49.691Z,17.40
2018-05-13T21:20:17.684Z,17.60
2018-05-13T21:22:45.684Z,17.80
2018-05-13T21:25:13.834Z,17.80
2018-05-13T21:27:42.630Z,17.90
2018-05-13T21:30:11.466Z,18.00
2018-05-13T21:32:39.500Z,17.90
2018-05-13T21:35:07.567Z,18.00
2018-05-13T21:37:36.428Z,18.00
2018-05-13T21:40:04.496Z,18.00
2018-05-13T21:42:32.571Z,18.10
2018-05-13T21:45:00.604Z,18.00
2018-05-13T21:47:28.595Z,17.90
2018-05-13T21:49:56.707Z,17.80
2018-05-13T21:52:25.590Z,17.80
2018-05-13T21:54:54.356Z,17.90
2018-05-13T21:57:22.381Z,17.90
2018-05-13T21:59:50.615Z,18.00
2018-05-13T22:02:18.747Z,18.00
2018-05-13T22:04:58.652Z,17.80
2018-05-13T22:07:27.491Z,17.70
2018-05-13T22:09:55.500Z,17.70
2018-05-13T22:12:23.567Z,17.70
2018-05-13T22:14:51.620Z,17.70
2018-05-13T22:17:19.642Z,17.70
2018-05-13T22:19:48.500Z,17.60
2018-05-13T22:22:16.544Z,17.60
2018-05-13T22:24:44.595Z,17.50
2018-05-13T22:27:12.672Z,17.50
2018-05-13T22:29:40.771Z,17.60
2018-05-13T22:32:08.868Z,17.60
2018-05-13T22:34:36.942Z,17.60
2018-05-13T22:37:04.960Z,17.50
2018-05-13T22:39:33.015Z,17.50
2018-05-13T22:42:01.186Z,17.40
2018-05-13T22:44:29.306Z,17.60
2018-05-13T22:46:57.329Z,17.70
2018-05-13T22:49:26.228Z,17.70
2018-05-13T22:51:54.280Z,17.60
2018-05-13T22:54:23.087Z,17.40
2018-05-13T22:56:51.089Z,17.30
2018-05-13T22:59:19.859Z,17.40
2018-05-13T23:01:47.931Z,17.30
2018-05-13T23:04:15.960Z,17.60
2018-05-13T23:06:44.016Z,17.30
2018-05-13T23:09:12.208Z,17.00
2018-05-13T23:11:41.053Z,16.90
2018-05-13T23:14:09.034Z,16.90
2018-05-13T23:16:37.072Z,17.00
2018-05-13T23:19:05.158Z,17.20
2018-05-13T23:21:33.211Z,17.10
2018-05-13T23:24:01.263Z,17.30
2018-05-13T23:26:30.059Z,17.40
2018-05-13T23:28:59.011Z,17.20
2018-05-13T23:31:27.058Z,17.20
2018-05-13T23:33:55.110Z,17.20
2018-05-13T23:36:23.176Z,17.10
2018-05-13T23:38:51.951Z,17.00
2018-05-13T23:41:20.775Z,17.10
2018-05-13T23:43:48.779Z,17.10
2018-05-13T23:46:16.827Z,17.10
2018-05-13T23:48:45.732Z,17.00
2018-05-13T23:51:13.760Z,17.00
2018-05-13T23:53:41.784Z,17.00
2018-05-13T23:56:09.808Z,16.90
2018-05-13T23:58:37.950Z,16.90
